Time;durP1;ratioP1;P1;durP2;ratioP2;P2;SDS_P1;SDS_P2;PMS_P1;PMS_P2;Temp;Humidity;BMP_temperature;BMP_pressure;BME280_temperature;BME280_humidity;BME280_pressure;Samples;Min_cycle;Max_cycle;Signal;HPM_P1;HPM_P2
2023/12/04 00:03:58;;;;;;;19.40;10.23;;;-7.00;99.90;;;;;;8367756;28;20290;-63
2023/12/04 00:08:00;;;;;;;16.80;9.60;;;-7.20;99.90;;;;;;8372964;28;20299;-62
2023/12/04 00:12:00;;;;;;;22.23;11.03;;;-7.30;99.90;;;;;;8373635;28;20391;-62
2023/12/04 00:16:02;;;;;;;20.40;10.03;;;-7.40;99.90;;;;;;8377931;28;20223;-61
2023/12/04 00:20:03;;;;;;;25.77;13.10;;;-7.40;99.90;;;;;;8380448;28;20194;-61
2023/12/04 00:24:04;;;;;;;23.43;12.23;;;-7.50;99.90;;;;;;8381401;28;20189;-61
2023/12/04 00:28:05;;;;;;;42.50;17.93;;;-7.50;99.90;;;;;;8379715;28;20182;-61
2023/12/04 00:32:06;;;;;;;42.13;18.10;;;-7.40;99.90;;;;;;8381265;28;20190;-61
2023/12/04 00:36:11;;;;;;;30.40;15.47;;;-7.40;99.90;;;;;;8374821;28;20203;-60
2023/12/04 00:40:14;;;;;;;29.33;15.13;;;-7.40;99.90;;;;;;8376119;28;20277;-62
2023/12/04 00:44:15;;;;;;;23.30;14.33;;;-7.30;99.90;;;;;;8376987;28;20544;-61
2023/12/04 00:48:16;;;;;;;28.57;13.27;;;-7.40;99.90;;;;;;8376206;28;20181;-61
2023/12/04 00:52:17;;;;;;;25.13;11.97;;;-7.40;99.90;;;;;;8376297;28;20202;-61
2023/12/04 00:56:20;;;;;;;22.37;12.17;;;-7.50;99.90;;;;;;8374589;28;20196;-61
2023/12/04 01:00:21;;;;;;;24.37;12.50;;;-7.60;99.90;;;;;;8376239;28;20262;-60
2023/12/04 01:04:22;;;;;;;18.97;10.90;;;-7.70;99.90;;;;;;8375914;28;20183;-61
2023/12/04 01:08:23;;;;;;;19.23;10.63;;;-7.70;99.90;;;;;;8373491;28;20178;-61
2023/12/04 01:12:25;;;;;;;17.10;9.33;;;-7.70;99.90;;;;;;8379391;28;20204;-61
2023/12/04 01:16:28;;;;;;;20.30;10.00;;;-7.70;99.90;;;;;;8375894;28;20267;-61
2023/12/04 01:20:29;;;;;;;23.23;11.60;;;-7.70;99.90;;;;;;8382577;28;20210;-61
2023/12/04 01:24:30;;;;;;;20.90;10.43;;;-7.80;99.90;;;;;;8375414;28;20188;-61
2023/12/04 01:28:31;;;;;;;22.50;11.03;;;-7.90;99.90;;;;;;8375903;28;20178;-61
2023/12/04 01:32:32;;;;;;;20.47;10.37;;;-8.00;99.90;;;;;;8375073;28;20185;-62
2023/12/04 01:36:33;;;;;;;23.43;11.67;;;-8.00;99.90;;;;;;8378726;28;20249;-63
2023/12/04 01:40:34;;;;;;;19.57;10.20;;;-8.00;99.90;;;;;;8371154;28;20218;-62
2023/12/04 01:44:35;;;;;;;22.50;11.43;;;-7.90;99.90;;;;;;8375446;28;20264;-61
2023/12/04 01:48:37;;;;;;;21.70;10.63;;;-7.90;99.90;;;;;;8375388;28;20181;-67
2023/12/04 01:52:40;;;;;;;24.60;11.17;;;-7.90;99.90;;;;;;8373680;28;20191;-68
2023/12/04 01:56:41;;;;;;;69.70;25.00;;;-8.10;99.90;;;;;;8378440;28;20188;-68
2023/12/04 02:00:42;;;;;;;124.97;34.70;;;-8.10;99.90;;;;;;8372801;28;20214;-61
2023/12/04 02:04:43;;;;;;;50.80;19.60;;;-8.10;99.90;;;;;;8369338;28;20285;-60
2023/12/04 02:08:45;;;;;;;97.27;34.00;;;-8.10;99.90;;;;;;8374972;28;20215;-67
2023/12/04 02:12:47;;;;;;;93.60;32.97;;;-8.20;99.90;;;;;;8376319;28;20192;-66
2023/12/04 02:16:51;;;;;;;61.30;21.37;;;-8.40;99.90;;;;;;8379337;28;20193;-64
2023/12/04 02:20:53;;;;;;;47.80;17.73;;;-8.70;99.90;;;;;;8378745;28;20354;-67
2023/12/04 02:24:58;;;;;;;42.17;16.97;;;-8.90;99.90;;;;;;8373461;28;20527;-67
2023/12/04 02:29:04;;;;;;;42.73;17.90;;;-9.00;99.90;;;;;;8376252;28;20314;-67
2023/12/04 02:33:07;;;;;;;52.33;18.97;;;-9.20;99.90;;;;;;8377405;28;20267;-65
2023/12/04 02:37:11;;;;;;;46.33;19.07;;;-9.30;99.90;;;;;;8372710;28;20185;-64
2023/12/04 02:41:12;;;;;;;27.43;11.13;;;-9.50;99.90;;;;;;8366676;28;20205;-66
2023/12/04 02:45:13;;;;;;;18.83;9.17;;;-9.60;99.90;;;;;;8370935;28;20188;-65
2023/12/04 02:49:14;;;;;;;18.20;9.20;;;-9.60;99.90;;;;;;8374235;28;20181;-65
2023/12/04 02:53:15;;;;;;;19.97;9.13;;;-9.70;99.90;;;;;;8373571;28;20177;-66
2023/12/04 02:57:18;;;;;;;16.33;8.30;;;-9.80;99.90;;;;;;8370695;28;20189;-66
2023/12/04 03:01:19;;;;;;;18.23;8.70;;;-9.90;99.90;;;;;;8379446;28;20204;-66
2023/12/04 03:05:19;;;;;;;15.17;7.67;;;-10.00;99.90;;;;;;8376431;28;20180;-64
2023/12/04 03:09:20;;;;;;;13.23;7.33;;;-10.20;99.90;;;;;;8369584;28;20285;-60
2023/12/04 03:13:21;;;;;;;13.80;7.83;;;-10.20;98.30;;;;;;8373377;28;20181;-61
2023/12/04 03:17:22;;;;;;;19.83;8.17;;;-10.30;96.90;;;;;;8366600;28;20185;-60
2023/12/04 03:21:26;;;;;;;16.13;8.53;;;-10.30;96.20;;;;;;8375327;28;20450;-61
2023/12/04 03:25:28;;;;;;;30.50;13.23;;;-10.30;99.90;;;;;;8361652;28;20181;-61
2023/12/04 03:29:29;;;;;;;24.57;10.73;;;-10.20;99.90;;;;;;8369894;28;20178;-61
2023/12/04 03:33:30;;;;;;;25.77;10.77;;;-10.20;99.90;;;;;;8371882;28;20191;-60
2023/12/04 03:37:30;;;;;;;18.83;9.17;;;-10.20;99.90;;;;;;8371523;28;20194;-60
2023/12/04 03:41:31;;;;;;;18.87;9.07;;;-10.10;99.90;;;;;;8372717;28;20303;-60
2023/12/04 03:45:32;;;;;;;17.77;9.50;;;-10.10;99.90;;;;;;8369025;28;20209;-60
2023/12/04 03:49:33;;;;;;;18.67;8.97;;;-10.10;99.90;;;;;;8370551;28;20181;-62
2023/12/04 03:53:35;;;;;;;16.83;8.00;;;-10.20;99.90;;;;;;8373598;28;20220;-59
2023/12/04 03:57:36;;;;;;;12.90;7.40;;;-10.30;98.50;;;;;;8373269;28;20192;-59
2023/12/04 04:01:37;;;;;;;16.83;8.27;;;-10.40;73.10;;;;;;8367849;28;20217;-59
2023/12/04 04:05:38;;;;;;;16.10;6.67;;;-10.50;54.20;;;;;;8375226;28;20247;-62
2023/12/04 04:09:40;;;;;;;15.07;7.70;;;-10.70;23.90;;;;;;8366158;28;20274;-59
2023/12/04 04:13:41;;;;;;;19.57;9.00;;;-10.80;4.50;;;;;;8372014;28;20278;-61
2023/12/04 04:17:42;;;;;;;15.37;7.67;;;-10.80;11.10;;;;;;8369476;28;20193;-62
2023/12/04 04:21:44;;;;;;;27.83;12.27;;;-10.80;17.20;;;;;;8368464;28;20292;-60
2023/12/04 04:25:46;;;;;;;39.30;14.13;;;-10.80;24.60;;;;;;8373917;28;20242;-59
2023/12/04 04:29:47;;;;;;;23.87;9.90;;;-10.80;54.80;;;;;;8368971;28;20181;-59
2023/12/04 04:33:48;;;;;;;39.87;13.23;;;-10.70;98.70;;;;;;8370612;28;20244;-62
2023/12/04 04:37:49;;;;;;;31.47;10.47;;;-10.60;99.90;;;;;;8369257;28;20181;-60
2023/12/04 04:41:52;;;;;;;19.13;8.97;;;-10.60;99.90;;;;;;8366477;28;20226;-60
2023/12/04 04:45:53;;;;;;;17.87;7.93;;;-10.60;99.90;;;;;;8360012;28;20276;-61
2023/12/04 04:49:54;;;;;;;18.03;9.00;;;-10.70;89.60;;;;;;8367466;28;20204;-59
2023/12/04 04:53:58;;;;;;;18.87;8.17;;;-10.80;47.20;;;;;;8370257;28;20193;-60
2023/12/04 04:57:59;;;;;;;17.50;8.00;;;-10.80;61.10;;;;;;8371326;28;20276;-60
2023/12/04 05:02:02;;;;;;;16.03;6.97;;;-10.80;56.40;;;;;;8374192;28;20224;-60
2023/12/04 05:06:04;;;;;;;18.27;9.17;;;-10.90;46.50;;;;;;8377027;28;20193;-61
2023/12/04 05:10:05;;;;;;;21.30;9.20;;;-10.90;50.00;;;;;;8372936;28;20258;-59
2023/12/04 05:14:06;;;;;;;27.53;11.43;;;-10.90;79.30;;;;;;8376473;28;20267;-59
2023/12/04 05:18:07;;;;;;;27.30;12.53;;;-10.90;73.50;;;;;;8375795;28;20203;-59
2023/12/04 05:22:09;;;;;;;35.03;12.20;;;-10.90;86.80;;;;;;8376718;28;20219;-62
2023/12/04 05:26:10;;;;;;;22.30;9.30;;;-11.00;59.10;;;;;;8375745;28;20185;-61
2023/12/04 05:30:11;;;;;;;24.80;9.83;;;-11.00;93.60;;;;;;8367479;28;20191;-61
2023/12/04 05:34:11;;;;;;;16.43;8.43;;;-11.00;99.90;;;;;;8372596;28;20192;-60
2023/12/04 05:38:12;;;;;;;19.67;9.07;;;-11.10;77.30;;;;;;8375123;28;20220;-64
2023/12/04 05:42:13;;;;;;;23.03;9.67;;;-11.20;37.10;;;;;;8376328;28;20217;-63
2023/12/04 05:46:14;;;;;;;27.93;10.37;;;-11.30;10.50;;;;;;8372585;28;20189;-64
2023/12/04 05:50:16;;;;;;;20.90;9.70;;;-11.40;1.00;;;;;;8370828;28;20269;-66
2023/12/04 05:54:18;;;;;;;24.70;10.60;;;-11.50;1.00;;;;;;8376704;28;20301;-66
2023/12/04 05:58:19;;;;;;;24.87;10.53;;;-11.60;1.00;;;;;;8372899;28;20192;-66
2023/12/04 06:02:20;;;;;;;28.70;11.20;;;-11.70;1.00;;;;;;8375921;28;20428;-64
2023/12/04 06:06:21;;;;;;;45.70;13.50;;;-11.80;1.00;;;;;;8370078;28;20274;-64
2023/12/04 06:10:22;;;;;;;60.40;18.57;;;-11.80;1.00;;;;;;8373491;28;20555;-67
2023/12/04 06:14:23;;;;;;;25.17;10.77;;;-11.70;1.00;;;;;;8371523;28;20193;-66
2023/12/04 06:18:25;;;;;;;35.97;13.40;;;-11.50;1.00;;;;;;8374216;28;20197;-66
2023/12/04 06:22:26;;;;;;;28.53;12.90;;;-11.50;1.00;;;;;;8375772;28;20325;-66
2023/12/04 06:26:27;;;;;;;38.60;16.13;;;-11.60;1.00;;;;;;8371088;28;20429;-67
2023/12/04 06:30:29;;;;;;;37.00;16.80;;;-11.60;1.00;;;;;;8370215;28;20203;-65
2023/12/04 06:34:30;;;;;;;32.77;15.47;;;-11.80;1.00;;;;;;8363929;28;20212;-63
2023/12/04 06:38:35;;;;;;;37.93;16.53;;;-11.90;1.00;;;;;;8369119;28;20262;-65
2023/12/04 06:42:38;;;;;;;43.50;18.23;;;-11.90;1.00;;;;;;8363808;28;20304;-64
2023/12/04 06:46:40;;;;;;;93.93;33.77;;;-11.90;1.00;;;;;;8364341;28;20180;-64
2023/12/04 06:50:41;;;;;;;176.50;52.10;;;-12.10;1.00;;;;;;8373015;28;20213;-61
2023/12/04 06:54:48;;;;;;;144.87;44.33;;;-12.00;1.00;;;;;;8371905;28;20186;-61
2023/12/04 06:58:49;;;;;;;105.73;33.50;;;-12.10;1.00;;;;;;8373935;28;20198;-64
2023/12/04 07:02:50;;;;;;;83.67;28.67;;;-12.20;1.00;;;;;;8366700;28;20670;-66
2023/12/04 07:06:51;;;;;;;122.73;41.00;;;-12.20;1.00;;;;;;8368926;28;20190;-66
2023/12/04 07:10:53;;;;;;;127.77;42.33;;;-12.10;1.00;;;;;;8369731;28;20173;-67
2023/12/04 07:14:54;;;;;;;115.30;40.97;;;-11.90;1.00;;;;;;8366580;28;20189;-67
2023/12/04 07:18:55;;;;;;;104.53;35.93;;;-11.80;1.00;;;;;;8369576;28;20199;-67
2023/12/04 07:22:57;;;;;;;90.50;33.00;;;-11.80;1.00;;;;;;8368736;28;20224;-67
2023/12/04 07:26:59;;;;;;;86.40;30.33;;;-11.70;1.00;;;;;;8367686;28;20181;-66
2023/12/04 07:31:03;;;;;;;59.83;23.60;;;-11.70;1.00;;;;;;8368824;28;20206;-67
2023/12/04 07:35:04;;;;;;;49.73;19.00;;;-11.70;1.00;;;;;;8366339;28;20607;-67
2023/12/04 07:39:06;;;;;;;63.30;20.30;;;-11.60;1.00;;;;;;8364966;28;20191;-67
2023/12/04 07:43:07;;;;;;;62.50;23.70;;;-11.40;1.00;;;;;;8367307;28;20213;-66
2023/12/04 07:47:08;;;;;;;94.47;33.83;;;-11.20;24.90;;;;;;8367909;28;20173;-66
2023/12/04 07:51:09;;;;;;;97.63;34.10;;;-11.00;88.50;;;;;;8363555;28;20196;-68
2023/12/04 07:55:10;;;;;;;95.37;37.30;;;-10.70;99.90;;;;;;8369334;28;20249;-66
2023/12/04 07:59:11;;;;;;;108.40;38.40;;;-10.40;99.90;;;;;;8365889;28;20203;-67
2023/12/04 08:03:12;;;;;;;101.93;38.93;;;-10.10;99.90;;;;;;8369671;28;20215;-67
2023/12/04 08:07:13;;;;;;;112.83;36.90;;;-9.80;99.90;;;;;;8364477;28;20281;-67
2023/12/04 08:11:14;;;;;;;137.50;49.23;;;-9.50;99.90;;;;;;8364860;28;20208;-67
2023/12/04 08:15:15;;;;;;;137.80;46.23;;;-9.30;99.90;;;;;;8369233;28;20184;-67
2023/12/04 08:19:16;;;;;;;127.23;42.17;;;-9.00;99.90;;;;;;8363334;28;20196;-67
2023/12/04 08:23:17;;;;;;;87.50;30.20;;;-8.70;99.90;;;;;;8369068;28;20204;-67
2023/12/04 08:27:17;;;;;;;51.37;23.17;;;-8.30;99.90;;;;;;8366320;28;20177;-67
2023/12/04 08:31:19;;;;;;;61.57;27.73;;;-7.90;99.90;;;;;;8369260;28;20267;-67
2023/12/04 08:35:20;;;;;;;56.43;29.03;;;-7.60;99.90;;;;;;8371854;28;20181;-67
2023/12/04 08:39:22;;;;;;;61.40;27.83;;;-7.30;99.90;;;;;;8370087;28;20192;-67
2023/12/04 08:43:23;;;;;;;87.27;36.30;;;-7.10;99.90;;;;;;8373427;28;20562;-68
2023/12/04 08:47:24;;;;;;;78.17;30.90;;;-7.00;99.90;;;;;;8380947;28;20210;-67
2023/12/04 08:51:26;;;;;;;99.63;38.83;;;-6.70;99.90;;;;;;8376264;28;20180;-68
2023/12/04 08:55:28;;;;;;;69.07;31.30;;;-6.60;99.90;;;;;;8372959;28;20193;-67
2023/12/04 08:59:29;;;;;;;51.20;26.03;;;-6.40;99.90;;;;;;8372047;28;20187;-69
2023/12/04 09:03:31;;;;;;;58.33;27.40;;;-6.10;99.90;;;;;;8376739;28;20212;-68
2023/12/04 09:07:32;;;;;;;172.53;63.47;;;-5.80;99.90;;;;;;8369447;28;20180;-68
2023/12/04 09:11:33;;;;;;;171.40;66.73;;;-5.60;99.90;;;;;;8373158;28;20299;-68
2023/12/04 09:15:34;;;;;;;107.10;44.43;;;-5.30;99.90;;;;;;8373165;28;20189;-68
2023/12/04 09:19:34;;;;;;;49.53;24.93;;;-5.10;99.90;;;;;;8374848;28;20241;-66
2023/12/04 09:23:35;;;;;;;48.20;24.37;;;-4.90;99.90;;;;;;8371522;28;20208;-68
2023/12/04 09:27:36;;;;;;;62.90;30.13;;;-4.60;99.90;;;;;;8369802;28;20177;-68
2023/12/04 09:31:37;;;;;;;49.27;26.37;;;-4.40;99.90;;;;;;8370844;28;20185;-69
2023/12/04 09:35:39;;;;;;;42.37;23.27;;;-4.20;99.90;;;;;;8369242;28;20274;-66
2023/12/04 09:39:40;;;;;;;44.83;25.10;;;-4.10;99.90;;;;;;8369923;28;20211;-66
2023/12/04 09:43:41;;;;;;;55.40;28.00;;;-3.90;99.90;;;;;;8365684;28;20208;-66
2023/12/04 09:47:43;;;;;;;41.50;21.97;;;-3.70;99.90;;;;;;8371492;28;20540;-67
2023/12/04 09:51:45;;;;;;;43.03;23.10;;;-3.50;99.90;;;;;;8369367;28;20190;-67
2023/12/04 09:55:49;;;;;;;43.17;22.87;;;-3.30;99.90;;;;;;8368526;28;20320;-67
2023/12/04 09:59:52;;;;;;;42.93;23.40;;;-3.20;99.90;;;;;;8368078;28;20201;-68
2023/12/04 10:03:53;;;;;;;39.97;22.40;;;-3.10;99.90;;;;;;8362035;28;20201;-67
2023/12/04 10:07:54;;;;;;;36.77;20.90;;;-3.00;99.90;;;;;;8369904;28;20182;-68
2023/12/04 10:12:02;;;;;;;35.90;21.30;;;-2.90;99.90;;;;;;8374468;28;20185;-68
2023/12/04 10:16:03;;;;;;;40.40;22.30;;;-2.70;99.90;;;;;;8371926;28;20191;-68
2023/12/04 10:20:17;;;;;;;40.40;21.77;;;-2.70;99.90;;;;;;8373140;28;20191;-66
2023/12/04 10:24:35;;;;;;;39.93;21.57;;;-2.40;99.90;;;;;;8371601;28;20249;-66
2023/12/04 10:28:37;;;;;;;41.97;23.40;;;-2.30;99.90;;;;;;8373632;28;20190;-65
2023/12/04 10:32:39;;;;;;;36.17;21.33;;;-2.10;99.90;;;;;;8372094;28;20195;-65
2023/12/04 10:36:40;;;;;;;41.47;24.63;;;-1.90;99.90;;;;;;8371080;28;20185;-65
2023/12/04 10:40:41;;;;;;;34.63;21.70;;;-1.80;99.90;;;;;;8370256;28;20594;-65
2023/12/04 10:44:42;;;;;;;39.00;22.27;;;-1.70;99.90;;;;;;8361474;28;20211;-66
2023/12/04 10:48:47;;;;;;;51.77;29.23;;;-1.60;99.90;;;;;;8367034;28;20180;-68
2023/12/04 10:52:48;;;;;;;53.40;29.33;;;-1.60;99.90;;;;;;8370162;28;20476;-68
2023/12/04 10:56:52;;;;;;;41.00;25.63;;;-1.60;99.90;;;;;;8372133;28;20209;-67
2023/12/04 11:00:54;;;;;;;42.47;24.70;;;-1.50;99.90;;;;;;8370571;28;20600;-68
2023/12/04 11:05:02;;;;;;;39.50;23.23;;;-1.40;99.90;;;;;;8371989;28;20178;-67
2023/12/04 11:09:05;;;;;;;45.23;23.77;;;-1.20;99.90;;;;;;8366992;28;20181;-68
2023/12/04 11:13:16;;;;;;;39.80;22.40;;;-1.00;99.90;;;;;;8370374;28;20177;-69
2023/12/04 11:17:20;;;;;;;44.37;24.63;;;-0.70;99.90;;;;;;8370214;28;20186;-68
2023/12/04 11:21:21;;;;;;;39.17;23.30;;;-0.60;99.90;;;;;;8368993;28;20192;-68
2023/12/04 11:25:24;;;;;;;35.57;21.53;;;-0.50;99.90;;;;;;8366324;28;20181;-68
2023/12/04 11:29:25;;;;;;;44.07;24.33;;;-0.30;99.90;;;;;;8369666;28;20268;-67
2023/12/04 11:33:27;;;;;;;41.77;25.53;;;-0.30;99.90;;;;;;8372436;28;20375;-67
2023/12/04 11:37:29;;;;;;;42.40;24.30;;;-0.50;99.90;;;;;;8369594;28;20177;-66
2023/12/04 11:41:30;;;;;;;43.50;25.80;;;-0.60;99.90;;;;;;8372787;28;20204;-67
2023/12/04 11:45:39;;;;;;;47.07;27.60;;;-0.70;99.90;;;;;;8368719;28;20304;-67
2023/12/04 11:49:40;;;;;;;49.27;29.40;;;-0.70;99.90;;;;;;8372161;28;20181;-67
2023/12/04 11:53:43;;;;;;;65.30;30.63;;;-0.80;99.90;;;;;;8372611;28;20285;-68
2023/12/04 11:57:45;;;;;;;82.50;34.93;;;-1.00;1.00;;;;;;8370448;28;20296;-68
2023/12/04 12:01:51;;;;;;;75.87;31.43;;;-1.10;1.00;;;;;;8370854;28;20205;-66
2023/12/04 12:05:52;;;;;;;47.63;25.57;;;-1.10;1.00;;;;;;8369083;28;20188;-68
2023/12/04 12:09:55;;;;;;;42.80;24.53;;;-0.90;1.00;;;;;;8365512;28;20285;-68
2023/12/04 12:13:56;;;;;;;41.90;24.93;;;-0.80;1.00;;;;;;8380441;28;20192;-66
2023/12/04 12:17:57;;;;;;;40.53;22.93;;;-0.50;1.00;;;;;;8374483;28;20289;-67
2023/12/04 12:21:58;;;;;;;46.60;25.27;;;-0.40;1.00;;;;;;8372077;28;20200;-67
2023/12/04 12:26:00;;;;;;;49.23;26.30;;;-0.40;43.40;;;;;;8363998;28;20185;-67
2023/12/04 12:30:03;;;;;;;67.90;33.37;;;-0.40;99.90;;;;;;8373666;28;20399;-66
2023/12/04 12:34:04;;;;;;;69.47;33.37;;;-0.50;1.00;;;;;;8373144;28;20193;-68
2023/12/04 12:38:05;;;;;;;62.13;37.03;;;-0.30;99.90;;;;;;8370304;28;20173;-67
2023/12/04 12:42:06;;;;;;;71.43;32.80;;;-0.30;96.30;;;;;;8368013;28;20272;-67
2023/12/04 12:46:10;;;;;;;64.57;29.27;;;-0.40;57.50;;;;;;8367559;28;20181;-66
2023/12/04 12:50:13;;;;;;;57.03;26.90;;;-0.40;54.80;;;;;;8365607;28;20236;-67
2023/12/04 12:54:14;;;;;;;40.03;21.23;;;-0.30;44.80;;;;;;8377203;28;20189;-67
2023/12/04 12:58:20;;;;;;;43.13;23.57;;;-0.30;35.70;;;;;;8366162;28;20200;-72
2023/12/04 13:02:21;;;;;;;34.87;21.67;;;-0.40;31.40;;;;;;8367645;28;20588;-72
2023/12/04 13:06:25;;;;;;;47.47;23.47;;;-0.60;29.50;;;;;;8368173;28;20182;-72
2023/12/04 13:10:26;;;;;;;37.83;21.27;;;-0.80;35.60;;;;;;8367771;28;20182;-71
2023/12/04 13:14:27;;;;;;;47.70;24.00;;;-0.90;41.50;;;;;;8362283;28;20189;-71
2023/12/04 13:18:31;;;;;;;57.43;24.63;;;-0.90;39.60;;;;;;8365796;28;20181;-72
2023/12/04 13:22:33;;;;;;;58.67;26.77;;;-1.10;43.90;;;;;;8390342;28;20247;-72
2023/12/04 13:26:34;;;;;;;64.97;33.53;;;-1.10;50.20;;;;;;8375794;28;20374;-72
2023/12/04 13:30:35;;;;;;;64.87;34.47;;;-1.20;53.50;;;;;;8374016;28;20311;-71
2023/12/04 13:34:35;;;;;;;37.60;22.03;;;-1.30;58.10;;;;;;8375238;28;20181;-72
2023/12/04 13:38:36;;;;;;;42.97;23.37;;;-1.30;56.30;;;;;;8371501;28;20182;-70
2023/12/04 13:46:58;;;;;;;39.53;20.90;;;-1.50;71.00;;;;;;8369172;28;20216;-72
2023/12/04 13:51:00;;;;;;;31.20;17.90;;;-1.60;92.70;;;;;;8369163;28;20324;-71
2023/12/04 13:55:01;;;;;;;32.43;18.27;;;-1.60;97.10;;;;;;8371816;28;20178;-72
2023/12/04 13:59:03;;;;;;;32.83;19.57;;;-1.70;99.90;;;;;;8368036;28;20178;-71
2023/12/04 14:03:06;;;;;;;30.63;17.53;;;-1.90;99.90;;;;;;8361864;28;20221;-71
2023/12/04 14:07:08;;;;;;;128.90;49.60;;;-2.00;99.90;;;;;;8366490;28;20184;-70
2023/12/04 14:11:11;;;;;;;109.40;45.30;;;-2.10;99.90;;;;;;8372901;28;20433;-72
2023/12/04 14:15:11;;;;;;;202.03;72.37;;;-2.20;99.90;;;;;;8370196;28;20227;-71
2023/12/04 14:19:14;;;;;;;200.43;78.30;;;-2.30;99.90;;;;;;8370537;28;20189;-71
2023/12/04 14:23:18;;;;;;;58.63;30.70;;;-2.40;99.90;;;;;;8370513;28;20197;-71
2023/12/04 14:27:19;;;;;;;77.23;29.40;;;-2.40;99.90;;;;;;8363635;28;20177;-71
2023/12/04 14:31:22;;;;;;;72.03;25.17;;;-2.50;99.90;;;;;;8371543;28;20216;-71
2023/12/04 14:35:27;;;;;;;46.87;21.07;;;-2.60;99.90;;;;;;8372445;28;20179;-71
2023/12/04 14:39:28;;;;;;;30.67;16.40;;;-2.70;99.90;;;;;;8371620;28;20212;-70
2023/12/04 14:43:28;;;;;;;45.40;20.03;;;-2.80;99.90;;;;;;8367662;28;20235;-71
2023/12/04 14:47:29;;;;;;;43.37;20.17;;;-2.80;99.90;;;;;;8371614;28;20181;-70
2023/12/04 14:51:31;;;;;;;36.57;20.07;;;-2.90;99.90;;;;;;8371387;28;20287;-71
2023/12/04 14:56:52;;;;;;;34.67;20.23;;;-3.00;99.90;;;;;;8370518;28;20305;-70
2023/12/04 15:17:01;;;;;;;52.33;25.50;;;-3.10;99.90;;;;;;8369044;28;20233;-64
2023/12/04 15:21:03;;;;;;;45.23;26.67;;;-3.10;99.90;;;;;;8364692;28;20292;-69
2023/12/04 15:25:11;;;;;;;101.90;42.63;;;-3.10;99.90;;;;;;8372995;28;20184;-69
2023/12/04 15:29:12;;;;;;;71.47;35.13;;;-3.10;99.90;;;;;;8374586;28;20390;-69
2023/12/04 15:33:13;;;;;;;58.43;27.80;;;-3.20;99.90;;;;;;8375906;28;20191;-69
2023/12/04 15:37:13;;;;;;;54.90;26.20;;;-3.20;99.90;;;;;;8372500;28;20268;-63
2023/12/04 15:41:16;;;;;;;45.67;23.20;;;-3.30;99.90;;;;;;8373866;28;20220;-67
2023/12/04 15:45:17;;;;;;;66.53;30.13;;;-3.40;99.90;;;;;;8370062;28;20208;-68
2023/12/04 15:49:18;;;;;;;102.43;34.53;;;-3.40;1.00;;;;;;8372428;28;20181;-69
2023/12/04 15:53:19;;;;;;;53.63;24.90;;;-3.50;1.00;;;;;;8374644;28;20193;-69
2023/12/04 15:57:20;;;;;;;63.80;36.27;;;-3.60;1.00;;;;;;8376948;28;20185;-70
2023/12/04 16:01:23;;;;;;;33.90;18.83;;;-3.60;1.00;;;;;;8373751;28;20268;-70
2023/12/04 16:05:25;;;;;;;35.43;17.17;;;-3.70;1.00;;;;;;8379295;28;20611;-68
2023/12/04 16:09:27;;;;;;;30.53;17.10;;;-3.70;1.00;;;;;;8370515;28;20234;-68
2023/12/04 16:13:27;;;;;;;42.53;19.57;;;-3.80;1.00;;;;;;8383754;28;20484;-68
2023/12/04 16:17:28;;;;;;;40.57;20.33;;;-3.90;1.00;;;;;;8375866;28;20197;-69
2023/12/04 16:21:30;;;;;;;59.30;25.70;;;-3.90;1.00;;;;;;8376247;28;20576;-69
2023/12/04 16:25:30;;;;;;;45.30;20.83;;;-3.90;1.00;;;;;;8365503;28;20213;-69
2023/12/04 16:29:35;;;;;;;60.87;22.87;;;-3.90;1.00;;;;;;8369090;28;20192;-67
2023/12/04 16:33:36;;;;;;;74.80;26.50;;;-4.00;1.00;;;;;;8365030;28;20195;-63
2023/12/04 16:37:39;;;;;;;113.07;47.07;;;-4.00;1.00;;;;;;8374083;28;20185;-69
2023/12/04 16:41:40;;;;;;;161.30;62.97;;;-3.90;1.00;;;;;;8375542;28;20216;-70
2023/12/04 16:45:41;;;;;;;100.57;39.73;;;-4.00;1.00;;;;;;8391339;28;20181;-70
2023/12/04 16:49:42;;;;;;;55.27;22.33;;;-4.00;1.00;;;;;;8364724;28;20178;-61
2023/12/04 16:53:43;;;;;;;51.73;22.27;;;-4.00;1.00;;;;;;8368751;28;20189;-61
2023/12/04 16:57:45;;;;;;;38.53;20.87;;;-3.90;1.00;;;;;;8371685;28;20246;-65
2023/12/04 17:01:48;;;;;;;36.50;19.83;;;-3.90;1.00;;;;;;8381043;28;20217;-69
2023/12/04 17:05:49;;;;;;;42.87;21.27;;;-3.90;1.00;;;;;;8376983;28;20443;-69
2023/12/04 17:09:50;;;;;;;53.20;25.30;;;-3.90;1.00;;;;;;8382056;28;20177;-67
2023/12/04 17:13:52;;;;;;;45.47;22.60;;;-3.90;1.00;;;;;;8378467;28;20186;-67
2023/12/04 17:17:53;;;;;;;50.20;23.70;;;-3.90;1.00;;;;;;8376531;28;20177;-69
2023/12/04 17:21:54;;;;;;;78.70;31.80;;;-3.90;1.00;;;;;;8379520;28;20200;-69
2023/12/04 17:25:55;;;;;;;104.07;39.20;;;-3.80;1.00;;;;;;8374746;28;20205;-67
2023/12/04 17:29:56;;;;;;;54.63;26.27;;;-3.80;1.00;;;;;;8376956;28;20197;-68
2023/12/04 17:33:59;;;;;;;60.17;27.50;;;-3.80;1.00;;;;;;8379099;28;20197;-68
2023/12/04 17:38:02;;;;;;;47.47;23.87;;;-3.80;1.00;;;;;;8383678;28;20245;-67
2023/12/04 17:42:04;;;;;;;52.23;25.10;;;-3.80;1.00;;;;;;8379330;28;20220;-69
2023/12/04 17:46:08;;;;;;;60.43;29.03;;;-3.70;1.00;;;;;;8395513;28;20207;-66
2023/12/04 17:50:09;;;;;;;84.20;33.80;;;-3.70;1.00;;;;;;8375214;28;20185;-67
2023/12/04 17:54:11;;;;;;;55.13;27.23;;;-3.70;1.00;;;;;;8376211;28;20177;-68
2023/12/04 17:58:13;;;;;;;58.30;30.17;;;-3.70;1.00;;;;;;8375340;28;20192;-64
2023/12/04 18:02:14;;;;;;;61.30;31.20;;;-3.70;1.00;;;;;;8370535;28;20305;-63
2023/12/04 18:06:15;;;;;;;55.67;29.80;;;-3.60;1.00;;;;;;8370717;28;20209;-61
2023/12/04 18:10:16;;;;;;;46.90;24.57;;;-3.70;1.00;;;;;;8373331;28;20177;-61
2023/12/04 18:14:17;;;;;;;49.50;24.83;;;-3.60;1.00;;;;;;8373448;28;20178;-62
2023/12/04 18:18:17;;;;;;;42.03;20.27;;;-3.60;1.00;;;;;;8365626;28;20190;-62
2023/12/04 18:22:19;;;;;;;37.13;20.73;;;-3.60;1.00;;;;;;8372671;28;20201;-62
2023/12/04 18:26:20;;;;;;;43.43;21.63;;;-3.60;1.00;;;;;;8371401;28;20189;-63
2023/12/04 18:30:21;;;;;;;42.07;21.63;;;-3.50;1.00;;;;;;8373375;28;20195;-60
2023/12/04 18:34:23;;;;;;;34.63;19.87;;;-3.50;1.00;;;;;;8364043;28;20209;-61
2023/12/04 18:38:32;;;;;;;40.47;20.53;;;-3.40;1.00;;;;;;8362941;28;20276;-61
2023/12/04 18:42:33;;;;;;;37.47;21.67;;;-3.30;1.00;;;;;;8372553;28;20243;-61
2023/12/04 18:46:34;;;;;;;39.13;21.40;;;-3.30;1.00;;;;;;8368895;28;20197;-62
2023/12/04 18:50:39;;;;;;;44.50;23.07;;;-3.30;99.90;;;;;;8374779;28;20182;-61
2023/12/04 18:54:41;;;;;;;39.00;21.43;;;-3.20;99.90;;;;;;8369888;28;20181;-61
2023/12/04 18:58:42;;;;;;;37.47;20.40;;;-3.20;99.90;;;;;;8365999;28;20188;-61
2023/12/04 19:02:44;;;;;;;40.17;20.70;;;-3.10;99.90;;;;;;8370894;28;20223;-62
2023/12/04 19:06:47;;;;;;;39.43;21.60;;;-3.10;99.90;;;;;;8372833;28;20198;-66
2023/12/04 19:10:49;;;;;;;39.57;21.60;;;-3.20;99.90;;;;;;8370276;28;20183;-68
2023/12/04 19:14:57;;;;;;;39.13;21.57;;;-3.20;99.90;;;;;;8372533;28;20194;-68
2023/12/04 19:19:00;;;;;;;40.67;21.10;;;-3.20;99.90;;;;;;8367097;28;20189;-68
2023/12/04 19:23:00;;;;;;;37.60;20.47;;;-3.20;99.90;;;;;;8372220;28;20214;-68
2023/12/04 19:27:04;;;;;;;38.37;20.40;;;-3.20;99.90;;;;;;8369949;28;20185;-67
2023/12/04 19:31:05;;;;;;;40.03;20.73;;;-3.20;99.90;;;;;;8377994;28;20186;-66
2023/12/04 19:35:09;;;;;;;34.70;19.83;;;-3.20;99.90;;;;;;8373545;28;20197;-69
2023/12/04 19:39:11;;;;;;;32.13;18.87;;;-3.20;99.90;;;;;;8370944;28;20213;-68
2023/12/04 19:43:14;;;;;;;37.40;19.53;;;-3.10;99.90;;;;;;8377050;28;20224;-67
2023/12/04 19:47:16;;;;;;;37.43;19.73;;;-3.10;99.90;;;;;;8372555;28;20448;-67
2023/12/04 19:51:17;;;;;;;39.60;22.13;;;-3.20;99.90;;;;;;8375623;28;20187;-68
2023/12/04 19:55:19;;;;;;;45.90;22.17;;;-3.30;99.90;;;;;;8373580;28;20187;-69
2023/12/04 19:59:21;;;;;;;44.67;21.47;;;-3.30;99.90;;;;;;8367405;28;20192;-68
2023/12/04 20:03:24;;;;;;;35.27;20.90;;;-3.40;99.90;;;;;;8373898;28;20206;-65
2023/12/04 20:07:25;;;;;;;40.33;22.20;;;-3.40;99.90;;;;;;8376109;28;20198;-68
2023/12/04 20:11:26;;;;;;;37.67;22.20;;;-3.40;99.90;;;;;;8375031;28;20170;-69
2023/12/04 20:15:27;;;;;;;46.87;25.03;;;-3.30;99.90;;;;;;8375490;28;20189;-66
2023/12/04 20:19:30;;;;;;;45.33;25.13;;;-3.30;99.90;;;;;;8371689;28;20253;-68
2023/12/04 20:23:32;;;;;;;48.23;26.43;;;-3.40;99.90;;;;;;8374349;28;20266;-69
2023/12/04 20:27:33;;;;;;;51.43;27.90;;;-3.40;99.90;;;;;;8375309;28;20173;-64
2023/12/04 20:31:34;;;;;;;40.27;21.63;;;-3.40;99.90;;;;;;8377259;28;20196;-69
2023/12/04 20:35:37;;;;;;;35.00;20.23;;;-3.50;99.90;;;;;;8379001;28;20182;-66
2023/12/04 20:39:40;;;;;;;36.97;20.87;;;-3.50;99.90;;;;;;8379771;28;20239;-67
2023/12/04 20:43:41;;;;;;;38.93;21.00;;;-3.50;99.90;;;;;;8376710;28;20214;-68
2023/12/04 20:47:43;;;;;;;39.27;22.33;;;-3.50;99.90;;;;;;8373974;28;20189;-68
2023/12/04 20:51:44;;;;;;;43.63;23.10;;;-3.50;99.90;;;;;;8378424;28;20189;-68